Time;durP1;ratioP1;P1;durP2;ratioP2;P2;SDS_P1;SDS_P2;PMS_P1;PMS_P2;Temp;Humidity;BMP_temperature;BMP_pressure;BME280_temperature;BME280_humidity;BME280_pressure;Samples;Min_cycle;Max_cycle;Signal;HPM_P1;HPM_P2
2023/03/15 00:01:35;;;;;;;3.30;2.00;;;9.20;99.90;;;;;;4998551;28;20969;-69
2023/03/15 00:04:05;;;;;;;3.60;2.20;;;9.20;99.90;;;;;;4993885;28;21046;-69
2023/03/15 00:06:34;;;;;;;3.30;1.57;;;9.20;99.90;;;;;;4997261;28;20577;-68
2023/03/15 00:09:03;;;;;;;2.67;1.57;;;9.20;99.90;;;;;;4993676;28;20479;-68
2023/03/15 00:11:31;;;;;;;3.03;1.60;;;9.20;99.90;;;;;;4995850;28;21007;-68
2023/03/15 00:14:01;;;;;;;1.73;1.50;;;9.20;99.90;;;;;;4997283;28;20552;-68
2023/03/15 00:16:31;;;;;;;5.93;1.70;;;9.20;99.90;;;;;;4995954;28;20551;-69
2023/03/15 00:19:00;;;;;;;1.63;1.43;;;9.20;99.90;;;;;;4984288;28;20463;-68
2023/03/15 00:21:29;;;;;;;2.80;1.27;;;9.20;99.90;;;;;;5000102;28;20479;-68
2023/03/15 00:23:58;;;;;;;1.50;1.40;;;9.20;99.90;;;;;;4991215;28;20453;-69
2023/03/15 00:26:26;;;;;;;3.57;1.77;;;9.20;99.90;;;;;;4995893;28;20497;-68
2023/03/15 00:28:54;;;;;;;2.53;1.60;;;9.20;99.90;;;;;;4984362;28;20524;-67
2023/03/15 00:31:25;;;;;;;2.50;1.60;;;9.20;99.90;;;;;;4998779;28;20457;-66
2023/03/15 00:33:53;;;;;;;1.60;1.50;;;9.20;99.90;;;;;;4978746;28;20448;-66
2023/03/15 00:36:24;;;;;;;2.23;1.40;;;9.20;99.90;;;;;;4994468;28;20510;-68
2023/03/15 00:38:55;;;;;;;2.53;1.70;;;9.20;99.90;;;;;;4998743;28;20818;-68
2023/03/15 00:41:24;;;;;;;1.83;1.50;;;9.10;99.90;;;;;;4985525;28;20509;-68
2023/03/15 00:43:52;;;;;;;1.60;1.40;;;9.10;99.90;;;;;;4997768;28;20485;-69
2023/03/15 00:46:20;;;;;;;2.87;1.90;;;9.20;99.90;;;;;;4986322;28;20563;-68
2023/03/15 00:48:50;;;;;;;2.90;1.67;;;9.20;99.90;;;;;;4990307;28;21610;-67
2023/03/15 00:51:21;;;;;;;2.00;1.80;;;9.10;99.90;;;;;;4980784;28;20730;-69
2023/03/15 00:53:51;;;;;;;1.70;1.30;;;9.10;99.90;;;;;;4990951;28;20463;-69
2023/03/15 00:56:23;;;;;;;1.93;1.30;;;9.10;99.90;;;;;;4977766;28;21003;-67
2023/03/15 00:58:52;;;;;;;4.10;2.00;;;9.10;99.90;;;;;;4999581;28;20482;-68
2023/03/15 01:01:22;;;;;;;1.90;1.47;;;9.10;99.90;;;;;;4999922;28;20448;-68
2023/03/15 01:03:51;;;;;;;7.77;1.90;;;9.10;99.90;;;;;;5002491;28;20540;-67
2023/03/15 01:06:21;;;;;;;1.93;1.70;;;9.10;99.90;;;;;;4992605;28;20519;-69
2023/03/15 01:08:51;;;;;;;3.03;1.87;;;9.10;99.90;;;;;;4987415;28;20480;-69
2023/03/15 01:11:23;;;;;;;2.70;1.93;;;9.10;99.90;;;;;;5000242;28;20466;-69
2023/03/15 01:13:52;;;;;;;1.33;1.07;;;9.10;99.90;;;;;;4974889;28;20523;-68
2023/03/15 01:16:21;;;;;;;3.30;1.87;;;9.10;99.90;;;;;;4990488;28;20479;-70
2023/03/15 01:18:50;;;;;;;2.57;2.37;;;9.10;99.90;;;;;;4997887;28;20473;-68
2023/03/15 01:21:21;;;;;;;1.80;1.30;;;9.10;99.90;;;;;;4980176;28;20459;-68
2023/03/15 01:23:50;;;;;;;2.77;1.60;;;9.10;99.90;;;;;;4990715;28;20458;-69
2023/03/15 01:26:23;;;;;;;2.40;1.43;;;9.10;99.90;;;;;;5002425;28;20487;-69
2023/03/15 01:28:52;;;;;;;2.37;1.70;;;9.10;99.90;;;;;;4985203;28;20498;-70
2023/03/15 01:31:22;;;;;;;1.47;1.37;;;9.10;99.90;;;;;;4987377;28;20535;-69
2023/03/15 01:33:51;;;;;;;2.03;1.50;;;9.10;99.90;;;;;;5003382;28;20490;-69
2023/03/15 01:36:20;;;;;;;1.90;1.70;;;9.10;99.90;;;;;;4987404;28;20448;-69
2023/03/15 01:38:49;;;;;;;3.23;2.10;;;9.10;99.90;;;;;;5014211;28;21097;-69
2023/03/15 01:41:24;;;;;;;3.90;1.80;;;9.10;99.90;;;;;;5016037;28;20532;-68
2023/03/15 01:43:53;;;;;;;3.57;1.63;;;9.10;99.90;;;;;;4994481;28;20951;-67
2023/03/15 01:46:26;;;;;;;2.90;1.60;;;9.10;99.90;;;;;;4998287;28;20856;-69
2023/03/15 01:49:06;;;;;;;1.83;1.40;;;9.10;99.90;;;;;;5004024;28;20452;-69
2023/03/15 01:51:45;;;;;;;2.60;1.63;;;9.00;99.90;;;;;;4971466;28;20440;-67
2023/03/15 01:54:19;;;;;;;1.47;1.13;;;9.00;99.90;;;;;;4978037;28;20480;-69
2023/03/15 01:56:56;;;;;;;2.90;1.50;;;9.00;99.90;;;;;;4987363;28;20854;-70
2023/03/15 01:59:30;;;;;;;2.23;1.40;;;9.00;99.90;;;;;;4987315;28;20519;-69
2023/03/15 02:01:59;;;;;;;1.60;1.50;;;9.00;99.90;;;;;;4996334;28;20455;-68
2023/03/15 02:04:32;;;;;;;1.50;1.40;;;9.00;99.90;;;;;;4991108;28;20466;-68
2023/03/15 02:07:03;;;;;;;3.10;1.77;;;9.00;99.90;;;;;;4982957;28;21020;-69
2023/03/15 02:09:43;;;;;;;2.97;1.90;;;9.00;99.90;;;;;;4982420;28;20519;-69
2023/03/15 02:12:13;;;;;;;2.57;1.80;;;9.00;99.90;;;;;;4974151;28;20689;-69
2023/03/15 02:14:42;;;;;;;1.80;1.43;;;9.00;99.90;;;;;;4972119;28;20810;-69
2023/03/15 02:17:15;;;;;;;1.40;1.17;;;8.90;99.90;;;;;;4986423;28;20513;-70
2023/03/15 02:19:54;;;;;;;1.80;1.30;;;8.90;99.90;;;;;;4996652;28;20476;-68
2023/03/15 02:22:30;;;;;;;1.83;1.40;;;9.00;99.90;;;;;;4986115;28;20488;-69
2023/03/15 02:25:04;;;;;;;2.60;2.07;;;8.90;99.90;;;;;;4978574;28;20526;-69
2023/03/15 02:27:39;;;;;;;2.90;1.63;;;8.90;99.90;;;;;;5001469;28;20470;-69
2023/03/15 02:30:10;;;;;;;3.43;1.77;;;8.90;99.90;;;;;;5000349;28;20545;-68
2023/03/15 02:32:38;;;;;;;1.80;1.10;;;8.90;99.90;;;;;;4999156;28;20968;-68
2023/03/15 02:35:08;;;;;;;3.30;1.70;;;8.90;99.90;;;;;;4978042;28;20488;-68
2023/03/15 02:37:36;;;;;;;2.23;1.50;;;8.90;99.90;;;;;;4983789;28;20503;-68
2023/03/15 02:40:17;;;;;;;1.80;1.37;;;8.90;99.90;;;;;;4983297;28;20499;-68
2023/03/15 02:42:51;;;;;;;2.10;1.20;;;8.90;99.90;;;;;;5001836;28;20451;-70
2023/03/15 02:45:20;;;;;;;1.90;1.30;;;8.90;99.90;;;;;;4983161;28;20503;-68
2023/03/15 02:47:51;;;;;;;1.90;1.00;;;8.80;99.90;;;;;;4996916;28;20544;-69
2023/03/15 02:50:20;;;;;;;2.67;2.30;;;8.80;99.90;;;;;;4979911;28;21157;-68
2023/03/15 02:52:48;;;;;;;2.30;1.83;;;8.80;99.90;;;;;;4999922;28;20481;-68
2023/03/15 02:55:18;;;;;;;1.67;1.23;;;8.90;99.90;;;;;;4990911;28;20489;-68
2023/03/15 02:57:48;;;;;;;1.30;1.20;;;8.80;99.90;;;;;;5000632;28;20896;-70
2023/03/15 03:00:17;;;;;;;2.30;1.17;;;8.80;99.90;;;;;;4984424;28;20902;-69
2023/03/15 03:02:47;;;;;;;2.30;1.00;;;8.80;99.90;;;;;;5001572;28;20435;-68
2023/03/15 03:05:17;;;;;;;2.80;1.57;;;8.80;99.90;;;;;;4989372;28;20483;-69
2023/03/15 03:07:45;;;;;;;1.27;1.17;;;8.80;99.90;;;;;;4995523;28;20480;-70
2023/03/15 03:10:17;;;;;;;3.57;1.20;;;8.80;99.90;;;;;;4986700;28;20905;-70
2023/03/15 03:12:56;;;;;;;2.30;1.43;;;8.80;99.90;;;;;;4992307;28;20452;-69
2023/03/15 03:15:34;;;;;;;1.50;1.00;;;8.80;99.90;;;;;;4981949;28;21074;-69
2023/03/15 03:18:02;;;;;;;1.90;1.10;;;8.80;99.90;;;;;;5000431;28;20895;-69
2023/03/15 03:20:31;;;;;;;2.10;1.37;;;8.80;99.90;;;;;;5000204;28;20574;-69
2023/03/15 03:23:04;;;;;;;1.67;1.10;;;8.80;99.90;;;;;;4995611;28;20446;-70
2023/03/15 03:25:35;;;;;;;1.90;1.00;;;8.80;99.90;;;;;;5000694;28;20492;-70
2023/03/15 03:28:05;;;;;;;1.83;1.30;;;8.80;99.90;;;;;;4994515;28;20538;-68
2023/03/15 03:30:35;;;;;;;1.47;1.30;;;8.80;99.90;;;;;;4990258;28;20475;-68
2023/03/15 03:33:04;;;;;;;1.30;1.00;;;8.80;99.90;;;;;;5004158;28;20578;-68
2023/03/15 03:35:32;;;;;;;1.90;1.73;;;8.80;99.90;;;;;;4994162;28;20518;-69
2023/03/15 03:38:01;;;;;;;2.40;1.23;;;8.80;99.90;;;;;;4993909;28;20464;-70
2023/03/15 03:40:35;;;;;;;1.30;1.10;;;8.80;99.90;;;;;;4999301;28;20558;-69
2023/03/15 03:43:07;;;;;;;1.63;1.30;;;8.70;99.90;;;;;;4993046;28;20468;-69
2023/03/15 03:45:35;;;;;;;3.37;1.10;;;8.70;99.90;;;;;;4983521;28;20495;-69
2023/03/15 03:48:05;;;;;;;1.40;1.30;;;8.70;99.90;;;;;;4990261;28;20898;-68
2023/03/15 03:50:35;;;;;;;1.43;1.20;;;8.70;99.90;;;;;;4994705;28;20566;-69
2023/03/15 03:53:03;;;;;;;1.43;1.30;;;8.70;99.90;;;;;;5001249;28;20448;-69
2023/03/15 03:55:34;;;;;;;1.30;1.20;;;8.70;99.90;;;;;;5000289;28;20483;-69
2023/03/15 03:58:03;;;;;;;1.50;1.40;;;8.70;99.90;;;;;;4988574;28;20543;-68
2023/03/15 04:00:53;;;;;;;1.03;0.93;;;8.70;99.90;;;;;;4980180;28;20487;-69
2023/03/15 04:03:26;;;;;;;1.13;1.03;;;8.70;99.90;;;;;;4998902;28;20463;-68
2023/03/15 04:06:04;;;;;;;1.37;0.87;;;8.70;99.90;;;;;;4998868;28;20468;-69
2023/03/15 04:08:36;;;;;;;1.80;0.90;;;8.70;99.90;;;;;;4996572;28;20468;-69
2023/03/15 04:11:06;;;;;;;1.40;0.93;;;8.70;99.90;;;;;;5001182;28;21031;-68
2023/03/15 04:13:38;;;;;;;1.17;0.87;;;8.70;99.90;;;;;;4971075;28;20445;-67
2023/03/15 04:16:08;;;;;;;2.97;1.00;;;8.70;99.90;;;;;;4983614;28;20563;-70
2023/03/15 04:18:55;;;;;;;1.47;1.13;;;8.70;99.90;;;;;;4985398;28;20514;-68
2023/03/15 04:21:24;;;;;;;1.07;0.97;;;8.70;99.90;;;;;;4998748;28;20869;-67
2023/03/15 04:23:59;;;;;;;1.60;0.87;;;8.70;99.90;;;;;;4983378;28;20449;-69
2023/03/15 04:26:44;;;;;;;1.50;1.10;;;8.60;99.90;;;;;;4997058;28;20478;-69
2023/03/15 04:29:32;;;;;;;0.80;0.80;;;8.60;99.90;;;;;;4999758;28;20654;-70
2023/03/15 04:32:21;;;;;;;1.20;1.03;;;8.60;99.90;;;;;;4980649;28;20451;-69
2023/03/15 04:35:04;;;;;;;2.40;1.00;;;8.60;99.90;;;;;;4985207;28;20827;-69
2023/03/15 04:37:41;;;;;;;1.60;1.07;;;8.60;99.90;;;;;;4986706;28;20480;-67
2023/03/15 04:40:33;;;;;;;2.10;1.23;;;8.60;99.90;;;;;;4974865;28;21119;-68
2023/03/15 04:43:23;;;;;;;1.10;1.00;;;8.60;99.90;;;;;;4983261;28;20809;-68
2023/03/15 04:46:24;;;;;;;1.53;1.20;;;8.60;99.90;;;;;;4984161;28;20459;-69
2023/03/15 04:49:26;;;;;;;0.90;0.70;;;8.60;99.90;;;;;;4951547;28;20712;-70
2023/03/15 04:52:10;;;;;;;1.20;0.87;;;8.60;99.90;;;;;;5000883;28;20452;-69
2023/03/15 04:55:11;;;;;;;1.10;0.80;;;8.60;99.90;;;;;;4975948;28;20569;-69
2023/03/15 04:57:57;;;;;;;1.70;1.03;;;8.60;99.90;;;;;;5001017;28;20946;-69
2023/03/15 05:00:44;;;;;;;1.37;0.70;;;8.60;99.90;;;;;;4981030;28;20491;-68
2023/03/15 05:03:32;;;;;;;1.00;0.90;;;8.60;99.90;;;;;;4971124;28;20539;-68
2023/03/15 05:06:13;;;;;;;2.20;1.13;;;8.60;99.90;;;;;;4995311;28;20510;-67
2023/03/15 05:09:02;;;;;;;1.00;0.67;;;8.60;99.90;;;;;;4978832;28;20575;-68
2023/03/15 05:11:49;;;;;;;1.30;0.90;;;8.60;99.90;;;;;;4978202;28;20531;-69
2023/03/15 05:14:56;;;;;;;1.10;0.83;;;8.60;99.90;;;;;;4972755;28;21080;-69
2023/03/15 05:17:45;;;;;;;1.63;1.17;;;8.60;99.90;;;;;;4976736;28;21028;-68
2023/03/15 05:20:24;;;;;;;1.37;1.27;;;8.60;99.90;;;;;;4985190;28;20479;-69
2023/03/15 05:23:08;;;;;;;1.47;0.90;;;8.60;99.90;;;;;;4993172;28;20949;-68
2023/03/15 05:25:53;;;;;;;2.43;1.57;;;8.60;99.90;;;;;;4993827;28;20508;-68
2023/03/15 05:28:40;;;;;;;1.13;0.90;;;8.60;99.90;;;;;;4983688;28;20995;-68
2023/03/15 05:31:35;;;;;;;0.83;0.70;;;8.50;99.90;;;;;;4961751;28;20519;-68
2023/03/15 05:34:28;;;;;;;1.20;0.80;;;8.50;99.90;;;;;;4984672;28;20466;-67
2023/03/15 05:36:56;;;;;;;1.43;0.90;;;8.50;99.90;;;;;;4978390;28;20434;-68
2023/03/15 05:39:41;;;;;;;1.13;0.87;;;8.50;99.90;;;;;;5003500;28;20467;-68
2023/03/15 05:42:28;;;;;;;1.13;0.80;;;8.50;99.90;;;;;;4989280;28;20443;-66
2023/03/15 05:45:12;;;;;;;1.43;0.93;;;8.50;99.90;;;;;;4998117;28;20587;-69
2023/03/15 05:47:52;;;;;;;0.70;0.70;;;8.50;99.90;;;;;;4972947;28;21105;-69
2023/03/15 05:50:23;;;;;;;1.73;1.00;;;8.50;99.90;;;;;;4976052;28;20758;-68
2023/03/15 05:53:03;;;;;;;1.60;1.07;;;8.50;99.90;;;;;;4979717;28;20448;-68
2023/03/15 05:55:56;;;;;;;0.97;0.73;;;8.50;99.90;;;;;;4967928;28;20519;-69
2023/03/15 05:58:54;;;;;;;0.83;0.73;;;8.50;99.90;;;;;;5000132;28;20454;-69
2023/03/15 06:01:39;;;;;;;1.27;0.90;;;8.40;99.90;;;;;;4992502;28;21166;-68
2023/03/15 06:04:19;;;;;;;0.70;0.70;;;8.40;99.90;;;;;;4986627;28;20456;-69
2023/03/15 06:06:48;;;;;;;1.10;1.00;;;8.50;99.90;;;;;;5002720;28;20445;-68
2023/03/15 06:09:18;;;;;;;0.80;0.80;;;8.40;99.90;;;;;;4984611;28;20516;-69
2023/03/15 06:11:49;;;;;;;1.10;1.00;;;8.40;99.90;;;;;;5002241;28;20452;-68
2023/03/15 06:14:18;;;;;;;0.97;0.80;;;8.40;99.90;;;;;;5003825;28;20498;-68
2023/03/15 06:16:52;;;;;;;1.10;0.80;;;8.40;99.90;;;;;;4983781;28;20458;-67
2023/03/15 06:19:21;;;;;;;1.37;1.27;;;8.40;99.90;;;;;;4999392;28;20560;-70
2023/03/15 06:21:54;;;;;;;1.70;1.37;;;8.40;99.90;;;;;;4979177;28;20437;-69
2023/03/15 06:24:38;;;;;;;1.13;0.90;;;8.40;99.90;;;;;;4973367;28;20456;-68
2023/03/15 06:27:08;;;;;;;1.20;1.10;;;8.40;99.90;;;;;;4998030;28;20461;-68
2023/03/15 06:29:36;;;;;;;1.43;1.03;;;8.40;99.90;;;;;;4991740;28;21007;-69
2023/03/15 06:32:05;;;;;;;2.10;0.97;;;8.40;99.90;;;;;;4988613;28;20451;-68
2023/03/15 06:34:36;;;;;;;1.30;1.20;;;8.30;99.90;;;;;;4987903;28;20449;-70
2023/03/15 06:37:05;;;;;;;0.90;0.90;;;8.40;99.90;;;;;;4999364;28;20484;-68
2023/03/15 06:39:34;;;;;;;1.30;1.07;;;8.30;99.90;;;;;;4996962;28;20883;-69
2023/03/15 06:42:03;;;;;;;1.07;0.93;;;8.30;99.90;;;;;;4992781;28;20528;-69
2023/03/15 06:44:35;;;;;;;1.00;0.90;;;8.30;99.90;;;;;;4988325;28;20452;-69
2023/03/15 06:47:07;;;;;;;1.10;1.00;;;8.30;99.90;;;;;;4995813;28;20518;-68
2023/03/15 06:49:37;;;;;;;1.50;1.27;;;8.30;99.90;;;;;;5000279;28;20484;-68
2023/03/15 06:52:07;;;;;;;1.70;1.07;;;8.30;99.90;;;;;;4999253;28;20457;-68
2023/03/15 06:54:36;;;;;;;1.33;1.03;;;8.30;99.90;;;;;;4976716;28;20905;-67
2023/03/15 06:57:05;;;;;;;1.20;0.90;;;8.30;99.90;;;;;;4998914;28;21078;-68
2023/03/15 06:59:34;;;;;;;1.30;1.17;;;8.30;99.90;;;;;;4992581;28;20460;-68
2023/03/15 07:02:03;;;;;;;2.00;1.48;;;8.30;99.90;;;;;;4992927;28;20564;-67
2023/03/15 07:04:31;;;;;;;1.93;1.50;;;8.30;99.90;;;;;;4993006;28;20309;-67
2023/03/15 07:07:00;;;;;;;2.63;1.60;;;8.30;99.90;;;;;;4977519;28;20466;-68
2023/03/15 07:09:28;;;;;;;1.50;1.37;;;8.30;99.90;;;;;;4984690;28;20488;-68
2023/03/15 07:11:57;;;;;;;1.25;0.98;;;8.30;99.90;;;;;;5002861;28;21130;-68
2023/03/15 07:14:25;;;;;;;1.70;1.27;;;8.30;99.90;;;;;;4985285;28;20211;-68
2023/03/15 07:16:55;;;;;;;1.63;1.47;;;8.30;99.90;;;;;;4978235;28;20547;-69
2023/03/15 07:19:23;;;;;;;1.07;0.97;;;8.30;99.90;;;;;;4998755;28;21211;-68
2023/03/15 07:21:51;;;;;;;1.30;1.20;;;8.20;99.90;;;;;;4983662;28;20498;-69
2023/03/15 07:24:20;;;;;;;1.13;1.00;;;8.20;99.90;;;;;;4972878;28;20457;-69
2023/03/15 07:26:49;;;;;;;1.23;1.00;;;8.30;99.90;;;;;;4978793;28;20463;-68
2023/03/15 07:29:17;;;;;;;1.00;0.90;;;8.30;99.90;;;;;;4969552;28;20468;-68
2023/03/15 07:31:46;;;;;;;2.10;1.43;;;8.30;99.90;;;;;;4974224;28;20464;-68
2023/03/15 07:34:15;;;;;;;1.30;1.20;;;8.30;99.90;;;;;;4993262;28;20526;-69
2023/03/15 07:36:44;;;;;;;1.17;1.00;;;8.30;99.90;;;;;;4995743;28;20455;-69
2023/03/15 07:39:12;;;;;;;1.20;1.10;;;8.20;99.90;;;;;;4990216;28;20532;-68
2023/03/15 07:41:40;;;;;;;1.73;1.43;;;8.20;99.90;;;;;;4995182;28;20527;-68
2023/03/15 07:44:20;;;;;;;1.37;1.10;;;8.20;99.90;;;;;;4998816;28;20511;-68
2023/03/15 07:46:49;;;;;;;1.47;1.20;;;8.20;99.90;;;;;;4995554;28;21020;-69
2023/03/15 07:49:19;;;;;;;1.50;0.97;;;8.20;99.90;;;;;;4980697;28;20888;-67
2023/03/15 07:51:48;;;;;;;1.70;0.87;;;8.30;99.90;;;;;;5000980;28;21013;-68
2023/03/15 07:54:16;;;;;;;1.10;1.00;;;8.20;99.90;;;;;;4985158;28;20497;-68
2023/03/15 07:56:44;;;;;;;1.20;1.00;;;8.20;99.90;;;;;;4974189;28;20515;-70
2023/03/15 07:59:13;;;;;;;1.20;1.10;;;8.20;99.90;;;;;;4984114;28;20229;-69
2023/03/15 08:01:41;;;;;;;1.40;1.30;;;8.20;99.90;;;;;;4981466;28;20450;-68
2023/03/15 08:04:09;;;;;;;1.05;0.95;;;8.20;99.90;;;;;;4997577;28;20477;-69
2023/03/15 08:06:39;;;;;;;1.88;1.20;;;8.20;99.90;;;;;;4978753;28;20634;-68
2023/03/15 08:09:08;;;;;;;1.20;1.00;;;8.20;99.90;;;;;;4967344;28;20657;-69
2023/03/15 08:11:37;;;;;;;1.47;1.33;;;8.20;99.90;;;;;;4998289;28;20555;-69
2023/03/15 08:14:05;;;;;;;0.90;0.70;;;8.20;99.90;;;;;;5000322;28;20470;-69
2023/03/15 08:16:33;;;;;;;1.37;1.27;;;8.20;99.90;;;;;;4979178;28;20197;-69
2023/03/15 08:19:02;;;;;;;1.67;1.10;;;8.20;99.90;;;;;;4984066;28;20459;-70
2023/03/15 08:21:32;;;;;;;1.05;0.80;;;8.20;99.90;;;;;;5004855;28;20222;-67
2023/03/15 08:24:02;;;;;;;1.33;1.17;;;8.20;99.90;;;;;;4986409;28;20200;-67
2023/03/15 08:26:30;;;;;;;1.73;1.43;;;8.20;99.90;;;;;;4989954;28;20532;-68
2023/03/15 08:28:59;;;;;;;1.93;1.50;;;8.10;99.90;;;;;;4995998;28;20978;-70
2023/03/15 08:31:27;;;;;;;1.37;1.20;;;8.10;99.90;;;;;;4996512;28;20550;-67
2023/03/15 08:33:56;;;;;;;1.53;1.27;;;8.10;99.90;;;;;;4990319;28;20956;-69
2023/03/15 08:36:24;;;;;;;1.55;1.23;;;8.10;99.90;;;;;;4998736;28;20479;-68
2023/03/15 08:38:52;;;;;;;1.40;1.30;;;8.10;99.90;;;;;;4994392;28;20221;-68
2023/03/15 08:41:22;;;;;;;1.20;1.10;;;8.10;99.90;;;;;;5003791;28;20453;-68
2023/03/15 08:43:50;;;;;;;2.40;1.90;;;8.10;99.90;;;;;;4990565;28;20205;-69
2023/03/15 08:46:20;;;;;;;1.50;1.40;;;8.10;99.90;;;;;;5000137;28;20563;-69
2023/03/15 08:48:49;;;;;;;1.42;1.33;;;8.10;99.90;;;;;;4980346;28;20234;-69
2023/03/15 08:51:18;;;;;;;2.70;1.50;;;8.10;99.90;;;;;;5002295;28;20699;-68
2023/03/15 08:53:47;;;;;;;1.37;1.23;;;8.10;99.90;;;;;;5000222;28;20445;-67
2023/03/15 08:56:15;;;;;;;1.97;1.60;;;8.10;99.90;;;;;;4985923;28;20519;-69
2023/03/15 08:58:45;;;;;;;1.48;1.38;;;8.10;99.90;;;;;;4988237;28;20499;-69
2023/03/15 09:01:14;;;;;;;1.20;1.10;;;8.10;99.90;;;;;;4997317;28;20286;-67
2023/03/15 09:03:42;;;;;;;2.40;1.10;;;8.10;99.90;;;;;;4983390;28;20455;-69
2023/03/15 09:06:11;;;;;;;1.30;1.13;;;8.10;99.90;;;;;;4991712;28;20320;-67
2023/03/15 09:08:40;;;;;;;2.95;1.38;;;8.10;99.90;;;;;;4988970;28;20224;-68
2023/03/15 09:11:09;;;;;;;1.33;0.90;;;8.10;99.90;;;;;;4979535;28;20225;-67
2023/03/15 09:13:37;;;;;;;1.00;0.90;;;8.10;99.90;;;;;;5001688;28;20196;-66
2023/03/15 09:16:07;;;;;;;1.00;0.73;;;8.10;99.90;;;;;;4985040;28;20481;-69
2023/03/15 09:18:36;;;;;;;1.50;0.80;;;8.10;99.90;;;;;;5000440;28;20564;-68
2023/03/15 09:21:06;;;;;;;1.60;0.93;;;8.10;99.90;;;;;;4983749;28;20470;-69
2023/03/15 09:23:34;;;;;;;1.20;0.90;;;8.10;99.90;;;;;;4990406;28;20452;-69
2023/03/15 09:26:03;;;;;;;1.27;1.17;;;8.10;99.90;;;;;;4995646;28;20231;-67
2023/03/15 09:28:31;;;;;;;3.03;1.30;;;8.00;99.90;;;;;;4979033;28;20491;-67
2023/03/15 09:31:00;;;;;;;1.33;1.10;;;8.10;99.90;;;;;;4978747;28;20279;-69
2023/03/15 09:33:32;;;;;;;1.20;1.10;;;8.10;99.90;;;;;;4999040;28;20506;-67
2023/03/15 09:36:00;;;;;;;1.42;1.15;;;8.10;99.90;;;;;;4989565;28;21098;-68
2023/03/15 09:38:28;;;;;;;1.93;0.90;;;8.00;99.90;;;;;;4986104;28;20594;-67
2023/03/15 09:40:58;;;;;;;1.40;1.10;;;8.00;99.90;;;;;;4996989;28;20854;-67
2023/03/15 09:43:59;;;;;;;1.73;0.90;;;8.10;99.90;;;;;;4982847;28;20457;-67
2023/03/15 09:46:32;;;;;;;2.08;0.75;;;8.00;99.90;;;;;;4965534;28;20560;-69
2023/03/15 09:49:09;;;;;;;1.10;1.00;;;8.00;99.90;;;;;;4970805;28;20220;-68
2023/03/15 09:51:46;;;;;;;0.90;0.80;;;8.00;99.90;;;;;;4986735;28;20296;-68
2023/03/15 09:54:20;;;;;;;1.15;1.05;;;8.00;99.90;;;;;;4980725;28;20477;-69
2023/03/15 09:56:54;;;;;;;1.27;1.17;;;8.00;99.90;;;;;;5003274;28;20632;-66
2023/03/15 09:59:26;;;;;;;1.63;1.30;;;8.00;99.90;;;;;;4984291;28;20683;-69
2023/03/15 10:01:56;;;;;;;1.20;1.07;;;8.00;99.90;;;;;;4993276;28;20815;-69
2023/03/15 10:04:30;;;;;;;1.50;1.00;;;8.00;99.90;;;;;;4980037;28;20978;-67
2023/03/15 10:07:01;;;;;;;2.45;1.10;;;8.00;99.90;;;;;;4981163;28;20948;-68
2023/03/15 10:09:33;;;;;;;1.30;1.00;;;8.00;99.90;;;;;;4994048;28;20194;-69
2023/03/15 10:12:05;;;;;;;0.90;0.90;;;8.00;99.90;;;;;;4989069;28;20204;-67
2023/03/15 10:14:53;;;;;;;1.53;1.17;;;8.00;99.90;;;;;;4998308;28;20456;-69
2023/03/15 10:17:28;;;;;;;1.70;1.60;;;8.00;99.90;;;;;;4978530;28;20502;-67
2023/03/15 10:20:05;;;;;;;0.93;0.90;;;8.00;99.90;;;;;;4992134;28;20327;-67
2023/03/15 10:22:43;;;;;;;1.40;1.30;;;8.00;99.90;;;;;;4991459;28;21031;-68
2023/03/15 10:25:16;;;;;;;1.27;1.20;;;8.00;99.90;;;;;;4986941;28;20735;-67
2023/03/15 10:27:49;;;;;;;1.00;0.80;;;8.00;99.90;;;;;;4997012;28;20574;-68
2023/03/15 10:30:20;;;;;;;1.40;1.00;;;8.00;99.90;;;;;;4977469;28;21055;-66
2023/03/15 10:32:55;;;;;;;1.43;0.90;;;8.00;99.90;;;;;;4982054;28;20778;-68
2023/03/15 10:35:26;;;;;;;1.30;1.00;;;8.00;99.90;;;;;;4995567;28;20828;-69
2023/03/15 10:37:55;;;;;;;1.20;1.10;;;8.00;99.90;;;;;;4999078;28;20352;-68
2023/03/15 10:40:42;;;;;;;1.43;1.00;;;8.00;99.90;;;;;;4994804;28;20559;-69
2023/03/15 10:43:18;;;;;;;2.10;1.03;;;8.00;99.90;;;;;;4983607;28;20493;-68
2023/03/15 10:46:00;;;;;;;1.50;1.33;;;8.00;99.90;;;;;;4976088;28;20483;-67
2023/03/15 10:48:31;;;;;;;1.85;0.80;;;8.00;99.90;;;;;;5002166;28;20560;-67
2023/03/15 10:51:05;;;;;;;0.80;0.77;;;8.00;99.90;;;;;;4998346;28;20617;-69
2023/03/15 10:53:33;;;;;;;1.00;0.80;;;8.00;99.90;;;;;;4979497;28;20947;-68
2023/03/15 10:56:06;;;;;;;1.10;0.90;;;8.00;99.90;;;;;;4995865;28;20492;-68
2023/03/15 10:58:42;;;;;;;0.80;0.70;;;8.00;99.90;;;;;;4999170;28;20496;-67
2023/03/15 11:01:22;;;;;;;1.03;0.93;;;8.00;99.90;;;;;;4984859;28;20602;-69
2023/03/15 11:04:06;;;;;;;1.30;1.20;;;8.00;99.90;;;;;;5000277;28;20878;-67
2023/03/15 11:06:42;;;;;;;1.13;0.77;;;8.00;99.90;;;;;;4999763;28;20467;-68
2023/03/15 11:09:13;;;;;;;0.90;0.80;;;8.00;99.90;;;;;;4988256;28;20549;-67
2023/03/15 11:11:58;;;;;;;1.37;0.90;;;8.10;99.90;;;;;;5002031;28;20474;-68
2023/03/15 11:14:33;;;;;;;1.30;0.90;;;8.00;99.90;;;;;;4995864;28;20563;-69
2023/03/15 11:17:04;;;;;;;1.40;1.00;;;8.00;99.90;;;;;;4992065;28;20448;-68
2023/03/15 11:19:37;;;;;;;1.20;1.00;;;8.00;99.90;;;;;;4981956;28;20450;-67
2023/03/15 11:22:12;;;;;;;1.17;1.07;;;8.00;99.90;;;;;;5002385;28;20514;-67
2023/03/15 11:24:40;;;;;;;1.10;0.80;;;8.00;99.90;;;;;;4989480;28;20491;-68
2023/03/15 11:27:12;;;;;;;1.10;1.00;;;8.10;99.90;;;;;;4987013;28;20449;-68
2023/03/15 11:29:44;;;;;;;1.07;1.00;;;8.00;99.90;;;;;;4978973;28;20444;-67
2023/03/15 11:32:16;;;;;;;1.43;1.07;;;8.00;99.90;;;;;;4980661;28;20475;-69
2023/03/15 11:34:48;;;;;;;1.70;1.03;;;8.00;99.90;;;;;;4994027;28;20483;-67
2023/03/15 11:37:21;;;;;;;1.40;0.77;;;8.10;99.90;;;;;;4987682;28;20471;-69
2023/03/15 11:39:55;;;;;;;2.10;1.10;;;8.00;99.90;;;;;;4998702;28;20461;-67
2023/03/15 11:42:44;;;;;;;1.43;1.17;;;8.00;99.90;;;;;;4998139;28;20456;-67
2023/03/15 11:45:18;;;;;;;0.80;0.80;;;8.00;99.90;;;;;;4986263;28;20486;-70
2023/03/15 11:47:51;;;;;;;1.00;0.90;;;8.00;99.90;;;;;;5000699;28;20473;-68
2023/03/15 11:50:19;;;;;;;0.80;0.80;;;8.00;99.90;;;;;;5000506;28;20227;-68
2023/03/15 11:52:51;;;;;;;1.03;0.70;;;8.10;99.90;;;;;;4983266;28;20295;-66
2023/03/15 11:55:22;;;;;;;1.77;0.80;;;8.00;99.90;;;;;;4986912;28;20470;-69
2023/03/15 11:57:52;;;;;;;0.88;0.80;;;8.00;99.90;;;;;;4983142;28;20508;-67
2023/03/15 12:00:53;;;;;;;1.33;0.90;;;8.00;99.90;;;;;;4994654;28;20232;-68
2023/03/15 12:03:40;;;;;;;2.40;1.50;;;8.00;99.90;;;;;;4973281;28;20462;-69
2023/03/15 12:06:37;;;;;;;2.63;1.20;;;8.00;99.90;;;;;;4984122;28;20917;-68
2023/03/15 12:09:39;;;;;;;1.33;1.17;;;8.00;99.90;;;;;;4986685;28;21036;-68
2023/03/15 12:12:35;;;;;;;0.80;0.80;;;8.00;99.90;;;;;;4991578;28;20450;-67
2023/03/15 12:15:07;;;;;;;1.57;0.90;;;8.00;99.90;;;;;;4981370;28;20470;-67
2023/03/15 12:17:44;;;;;;;3.50;1.53;;;8.00;99.90;;;;;;4984593;28;20531;-69
2023/03/15 12:20:35;;;;;;;1.80;1.30;;;8.00;99.90;;;;;;4995736;28;20498;-67
2023/03/15 12:23:21;;;;;;;2.63;1.00;;;8.00;99.90;;;;;;4980431;28;20937;-68
2023/03/15 12:25:54;;;;;;;2.80;1.10;;;8.00;99.90;;;;;;4986046;28;21046;-68
2023/03/15 12:28:27;;;;;;;1.60;1.20;;;8.00;99.90;;;;;;4994173;28;21025;-68
2023/03/15 12:31:00;;;;;;;1.30;1.10;;;8.00;99.90;;;;;;4975694;28;20889;-70
2023/03/15 12:33:32;;;;;;;1.53;1.30;;;8.10;99.90;;;;;;4984437;28;20478;-68
2023/03/15 12:36:04;;;;;;;1.20;1.10;;;8.00;99.90;;;;;;4984535;28;20506;-69
2023/03/15 12:38:38;;;;;;;1.17;0.90;;;8.00;99.90;;;;;;4986205;28;20597;-68
2023/03/15 12:41:09;;;;;;;0.80;0.70;;;8.00;99.90;;;;;;4999140;28;20474;-68
2023/03/15 12:43:42;;;;;;;2.90;1.33;;;8.00;99.90;;;;;;4985134;28;20503;-69
2023/03/15 12:46:44;;;;;;;1.00;0.90;;;8.00;99.90;;;;;;4988481;28;20477;-69
2023/03/15 12:49:27;;;;;;;1.50;0.77;;;8.00;99.90;;;;;;4995866;28;20451;-66
2023/03/15 12:51:58;;;;;;;0.60;0.60;;;8.10;99.90;;;;;;4982406;28;20516;-67
2023/03/15 12:54:34;;;;;;;1.17;0.80;;;8.00;99.90;;;;;;4982709;28;20986;-68
2023/03/15 12:57:04;;;;;;;1.05;0.60;;;8.00;99.90;;;;;;4968989;28;20478;-67
2023/03/15 12:59:40;;;;;;;2.55;1.27;;;8.00;99.90;;;;;;4976695;28;20455;-67
2023/03/15 13:02:31;;;;;;;1.63;1.53;;;8.00;99.90;;;;;;4982634;28;20283;-67
2023/03/15 13:05:18;;;;;;;1.60;0.90;;;8.10;99.90;;;;;;4995277;28;20472;-67
2023/03/15 13:08:04;;;;;;;1.30;1.20;;;8.10;99.90;;;;;;4985179;28;20469;-69
2023/03/15 13:10:43;;;;;;;1.30;1.20;;;8.10;99.90;;;;;;4984218;28;20968;-67
2023/03/15 13:13:34;;;;;;;1.55;1.35;;;8.10;99.90;;;;;;4982620;28;20213;-68
2023/03/15 13:16:21;;;;;;;1.52;1.33;;;8.00;99.90;;;;;;4983311;28;20343;-68
2023/03/15 13:18:58;;;;;;;1.55;1.20;;;8.10;99.90;;;;;;4983880;28;20275;-69
2023/03/15 13:21:31;;;;;;;1.00;0.90;;;8.10;99.90;;;;;;5004053;28;20302;-69
2023/03/15 13:23:59;;;;;;;1.07;1.07;;;8.10;99.90;;;;;;4987490;28;20292;-69
2023/03/15 13:26:39;;;;;;;1.10;1.00;;;8.10;99.90;;;;;;4995258;28;20456;-68
2023/03/15 13:29:16;;;;;;;1.10;0.90;;;8.10;99.90;;;;;;4988796;28;20372;-69
2023/03/15 13:31:46;;;;;;;0.90;0.80;;;8.10;99.90;;;;;;4979229;28;21031;-67
2023/03/15 13:34:19;;;;;;;0.80;0.73;;;8.10;99.90;;;;;;4992548;28;20487;-69